sensor_id;sensor_type;location;lat;lon;timestamp;pressure;altitude;pressure_sealevel;temperature;humidity
16690;BME280;8458;52.220;9.884;2023-11-21T00:01:57;100177.97;;;8.52;100.00
16690;BME280;8458;52.220;9.884;2023-11-21T00:04:25;100178.84;;;8.58;100.00
16690;BME280;8458;52.220;9.884;2023-11-21T00:06:53;100184.34;;;8.58;100.00
16690;BME280;8458;52.220;9.884;2023-11-21T00:09:20;100177.75;;;8.59;100.00
16690;BME280;8458;52.220;9.884;2023-11-21T00:11:46;100185.47;;;8.57;100.00
16690;BME280;8458;52.220;9.884;2023-11-21T00:14:13;100187.19;;;8.63;100.00
16690;BME280;8458;52.220;9.884;2023-11-21T00:16:40;100185.50;;;8.62;100.00
16690;BME280;8458;52.220;9.884;2023-11-21T00:19:07;100184.16;;;8.65;100.00
16690;BME280;8458;52.220;9.884;2023-11-21T00:21:35;100195.41;;;8.58;100.00
16690;BME280;8458;52.220;9.884;2023-11-21T00:24:01;100203.16;;;8.56;100.00
16690;BME280;8458;52.220;9.884;2023-11-21T00:26:27;100199.28;;;8.57;100.00
16690;BME280;8458;52.220;9.884;2023-11-21T00:28:56;100193.78;;;8.57;100.00
16690;BME280;8458;52.220;9.884;2023-11-21T00:31:22;100192.09;;;8.56;100.00
16690;BME280;8458;52.220;9.884;2023-11-21T00:33:48;100192.91;;;8.56;100.00
16690;BME280;8458;52.220;9.884;2023-11-21T00:36:15;100194.81;;;8.51;100.00
16690;BME280;8458;52.220;9.884;2023-11-21T00:38:43;100196.53;;;8.57;100.00
16690;BME280;8458;52.220;9.884;2023-11-21T00:41:09;100187.34;;;8.51;100.00
16690;BME280;8458;52.220;9.884;2023-11-21T00:43:36;100188.78;;;8.54;100.00
16690;BME280;8458;52.220;9.884;2023-11-21T00:46:04;100188.25;;;8.57;100.00
16690;BME280;8458;52.220;9.884;2023-11-21T00:48:32;100186.56;;;8.56;100.00
16690;BME280;8458;52.220;9.884;2023-11-21T00:50:58;100189.88;;;8.58;100.00
16690;BME280;8458;52.220;9.884;2023-11-21T00:53:25;100186.03;;;8.59;100.00
16690;BME280;8458;52.220;9.884;2023-11-21T00:55:53;100192.72;;;8.63;100.00
16690;BME280;8458;52.220;9.884;2023-11-21T00:58:22;100186.03;;;8.59;100.00
16690;BME280;8458;52.220;9.884;2023-11-21T01:00:48;100193.25;;;8.60;100.00
16690;BME280;8458;52.220;9.884;2023-11-21T01:03:15;100201.78;;;8.58;100.00
16690;BME280;8458;52.220;9.884;2023-11-21T01:05:41;100212.63;;;8.65;100.00
16690;BME280;8458;52.220;9.884;2023-11-21T01:08:08;100207.09;;;8.65;100.00
16690;BME280;8458;52.220;9.884;2023-11-21T01:10:35;100210.66;;;8.60;100.00
16690;BME280;8458;52.220;9.884;2023-11-21T01:13:03;100214.81;;;8.63;100.00
16690;BME280;8458;52.220;9.884;2023-11-21T01:15:30;100215.66;;;8.64;100.00
16690;BME280;8458;52.220;9.884;2023-11-21T01:17:57;100222.53;;;8.61;100.00
16690;BME280;8458;52.220;9.884;2023-11-21T01:20:23;100225.34;;;8.66;100.00
16690;BME280;8458;52.220;9.884;2023-11-21T01:22:50;100232.50;;;8.62;100.00
16690;BME280;8458;52.220;9.884;2023-11-21T01:25:16;100227.00;;;8.67;100.00
16690;BME280;8458;52.220;9.884;2023-11-21T01:27:43;100228.69;;;8.68;100.00
16690;BME280;8458;52.220;9.884;2023-11-21T01:30:11;100227.53;;;8.64;100.00
16690;BME280;8458;52.220;9.884;2023-11-21T01:32:38;100226.44;;;8.65;100.00
16690;BME280;8458;52.220;9.884;2023-11-21T01:35:06;100230.88;;;8.66;100.00
16690;BME280;8458;52.220;9.884;2023-11-21T01:37:32;100227.00;;;8.67;100.00
16690;BME280;8458;52.220;9.884;2023-11-21T01:39:59;100233.06;;;8.64;100.00
16690;BME280;8458;52.220;9.884;2023-11-21T01:42:26;100237.53;;;8.70;100.00
16690;BME280;8458;52.220;9.884;2023-11-21T01:44:54;100243.84;;;8.66;100.00
16690;BME280;8458;52.220;9.884;2023-11-21T01:47:22;100238.03;;;8.62;100.00
16690;BME280;8458;52.220;9.884;2023-11-21T01:49:49;100240.22;;;8.60;100.00
16690;BME280;8458;52.220;9.884;2023-11-21T01:52:15;100239.97;;;8.61;100.00
16690;BME280;8458;52.220;9.884;2023-11-21T01:54:43;100242.75;;;8.67;100.00
16690;BME280;8458;52.220;9.884;2023-11-21T01:57:09;100233.56;;;8.61;100.00
16690;BME280;8458;52.220;9.884;2023-11-21T01:59:37;100241.59;;;8.63;100.00
16690;BME280;8458;52.220;9.884;2023-11-21T02:02:04;100240.78;;;8.62;100.00
16690;BME280;8458;52.220;9.884;2023-11-21T02:04:33;100244.09;;;8.64;100.00
16690;BME280;8458;52.220;9.884;2023-11-21T02:07:00;100243.00;;;8.60;100.00
16690;BME280;8458;52.220;9.884;2023-11-21T02:09:27;100245.22;;;8.63;100.00
16690;BME280;8458;52.220;9.884;2023-11-21T02:11:55;100239.44;;;8.65;100.00
16690;BME280;8458;52.220;9.884;2023-11-21T02:14:22;100246.34;;;8.67;100.00
16690;BME280;8458;52.220;9.884;2023-11-21T02:16:51;100248.59;;;8.70;100.00
16690;BME280;8458;52.220;9.884;2023-11-21T02:19:19;100238.06;;;8.67;100.00
16690;BME280;8458;52.220;9.884;2023-11-21T02:21:50;100243.91;;;8.71;100.00
16690;BME280;8458;52.220;9.884;2023-11-21T02:24:20;100251.09;;;8.72;100.00
16690;BME280;8458;52.220;9.884;2023-11-21T02:26:46;100255.28;;;8.74;100.00
16690;BME280;8458;52.220;9.884;2023-11-21T02:29:13;100261.34;;;8.76;100.00
16690;BME280;8458;52.220;9.884;2023-11-21T02:31:41;100259.75;;;8.81;100.00
16690;BME280;8458;52.220;9.884;2023-11-21T02:34:13;100250.38;;;8.82;100.00
16690;BME280;8458;52.220;9.884;2023-11-21T02:36:40;100254.25;;;8.86;100.00
16690;BME280;8458;52.220;9.884;2023-11-21T02:39:07;100260.38;;;8.88;100.00
16690;BME280;8458;52.220;9.884;2023-11-21T02:41:36;100259.50;;;8.87;100.00
16690;BME280;8458;52.220;9.884;2023-11-21T02:44:02;100254.84;;;8.88;100.00
16690;BME280;8458;52.220;9.884;2023-11-21T02:46:31;100255.91;;;8.82;100.00
16690;BME280;8458;52.220;9.884;2023-11-21T02:48:59;100253.69;;;8.84;100.00
16690;BME280;8458;52.220;9.884;2023-11-21T02:51:25;100258.69;;;8.87;100.00
16690;BME280;8458;52.220;9.884;2023-11-21T02:53:51;100250.13;;;8.88;100.00
16690;BME280;8458;52.220;9.884;2023-11-21T02:56:18;100260.09;;;8.89;100.00
16690;BME280;8458;52.220;9.884;2023-11-21T02:58:46;100255.13;;;8.91;100.00
16690;BME280;8458;52.220;9.884;2023-11-21T03:01:12;100257.06;;;8.91;100.00
16690;BME280;8458;52.220;9.884;2023-11-21T03:03:39;100254.88;;;8.93;100.00
16690;BME280;8458;52.220;9.884;2023-11-21T03:06:05;100258.16;;;8.90;100.00
16690;BME280;8458;52.220;9.884;2023-11-21T03:08:32;100260.13;;;8.94;100.00
16690;BME280;8458;52.220;9.884;2023-11-21T03:10:59;100270.38;;;8.94;100.00
16690;BME280;8458;52.220;9.884;2023-11-21T03:13:25;100267.00;;;8.92;100.00
16690;BME280;8458;52.220;9.884;2023-11-21T03:15:53;100270.94;;;8.96;100.00
16690;BME280;8458;52.220;9.884;2023-11-21T03:18:19;100279.19;;;8.91;100.00
16690;BME280;8458;52.220;9.884;2023-11-21T03:20:47;100275.84;;;8.89;100.00
16690;BME280;8458;52.220;9.884;2023-11-21T03:23:14;100276.09;;;8.87;100.00
16690;BME280;8458;52.220;9.884;2023-11-21T03:25:40;100290.19;;;8.86;100.00
16690;BME280;8458;52.220;9.884;2023-11-21T03:28:07;100294.59;;;8.82;100.00
16690;BME280;8458;52.220;9.884;2023-11-21T03:30:34;100287.38;;;8.81;100.00
16690;BME280;8458;52.220;9.884;2023-11-21T03:33:02;100294.34;;;8.83;100.00
16690;BME280;8458;52.220;9.884;2023-11-21T03:35:28;100299.00;;;8.83;100.00
16690;BME280;8458;52.220;9.884;2023-11-21T03:37:55;100299.06;;;8.88;100.00
16690;BME280;8458;52.220;9.884;2023-11-21T03:40:21;100304.09;;;8.91;100.00
16690;BME280;8458;52.220;9.884;2023-11-21T03:42:48;100306.50;;;8.87;100.00
16690;BME280;8458;52.220;9.884;2023-11-21T03:45:15;100311.25;;;8.92;100.00
16690;BME280;8458;52.220;9.884;2023-11-21T03:47:42;100297.97;;;8.89;100.00
16690;BME280;8458;52.220;9.884;2023-11-21T03:50:10;100301.88;;;8.93;100.00
16690;BME280;8458;52.220;9.884;2023-11-21T03:52:37;100307.41;;;8.93;100.00
16690;BME280;8458;52.220;9.884;2023-11-21T03:55:04;100308.19;;;8.88;100.00
16690;BME280;8458;52.220;9.884;2023-11-21T03:57:30;100309.28;;;8.87;100.00
16690;BME280;8458;52.220;9.884;2023-11-21T03:59:57;100312.91;;;8.88;100.00
16690;BME280;8458;52.220;9.884;2023-11-21T04:02:23;100305.44;;;8.88;100.00
16690;BME280;8458;52.220;9.884;2023-11-21T04:04:51;100308.47;;;8.87;100.00
16690;BME280;8458;52.220;9.884;2023-11-21T04:07:19;100310.41;;;8.86;100.00
16690;BME280;8458;52.220;9.884;2023-11-21T04:09:47;100315.66;;;8.88;100.00
16690;BME280;8458;52.220;9.884;2023-11-21T04:12:13;100310.59;;;8.79;100.00
16690;BME280;8458;52.220;9.884;2023-11-21T04:14:40;100321.09;;;8.77;100.00
16690;BME280;8458;52.220;9.884;2023-11-21T04:17:06;100316.13;;;8.79;100.00
16690;BME280;8458;52.220;9.884;2023-11-21T04:19:33;100321.38;;;8.81;100.00
16690;BME280;8458;52.220;9.884;2023-11-21T04:21:59;100324.13;;;8.76;100.00
16690;BME280;8458;52.220;9.884;2023-11-21T04:24:27;100330.38;;;8.66;100.00
16690;BME280;8458;52.220;9.884;2023-11-21T04:26:53;100330.84;;;8.58;100.00
16690;BME280;8458;52.220;9.884;2023-11-21T04:29:20;100334.75;;;8.62;100.00
16690;BME280;8458;52.220;9.884;2023-11-21T04:31:46;100338.50;;;8.51;100.00
16690;BME280;8458;52.220;9.884;2023-11-21T04:34:14;100341.84;;;8.53;100.00
16690;BME280;8458;52.220;9.884;2023-11-21T04:36:40;100330.78;;;8.53;100.00
16690;BME280;8458;52.220;9.884;2023-11-21T04:39:07;100340.50;;;8.55;100.00
16690;BME280;8458;52.220;9.884;2023-11-21T04:41:35;100336.88;;;8.55;100.00
16690;BME280;8458;52.220;9.884;2023-11-21T04:44:04;100348.72;;;8.50;100.00
16690;BME280;8458;52.220;9.884;2023-11-21T04:46:31;100352.63;;;8.54;100.00
16690;BME280;8458;52.220;9.884;2023-11-21T04:48:58;100357.00;;;8.50;100.00
16690;BME280;8458;52.220;9.884;2023-11-21T04:51:24;100363.94;;;8.53;100.00
16690;BME280;8458;52.220;9.884;2023-11-21T04:53:51;100358.94;;;8.50;100.00
16690;BME280;8458;52.220;9.884;2023-11-21T04:56:17;100368.97;;;8.56;100.00
16690;BME280;8458;52.220;9.884;2023-11-21T04:58:45;100371.97;;;8.54;100.00
16690;BME280;8458;52.220;9.884;2023-11-21T05:01:12;100376.16;;;8.57;100.00
16690;BME280;8458;52.220;9.884;2023-11-21T05:03:38;100370.03;;;8.55;100.00
16690;BME280;8458;52.220;9.884;2023-11-21T05:06:06;100377.28;;;8.61;100.00
16690;BME280;8458;52.220;9.884;2023-11-21T05:08:32;100378.41;;;8.60;100.00
16690;BME280;8458;52.220;9.884;2023-11-21T05:10:59;100378.94;;;8.57;100.00
16690;BME280;8458;52.220;9.884;2023-11-21T05:13:25;100382.31;;;8.64;100.00
16690;BME280;8458;52.220;9.884;2023-11-21T05:15:54;100390.34;;;8.66;100.00
16690;BME280;8458;52.220;9.884;2023-11-21T05:18:20;100379.50;;;8.59;100.00
16690;BME280;8458;52.220;9.884;2023-11-21T05:20:47;100378.97;;;8.62;100.00
16690;BME280;8458;52.220;9.884;2023-11-21T05:23:13;100385.66;;;8.66;100.00
16690;BME280;8458;52.220;9.884;2023-11-21T05:25:40;100389.50;;;8.65;100.00
16690;BME280;8458;52.220;9.884;2023-11-21T05:28:07;100383.97;;;8.65;100.00
16690;BME280;8458;52.220;9.884;2023-11-21T05:30:33;100391.19;;;8.66;100.00
16690;BME280;8458;52.220;9.884;2023-11-21T05:33:01;100397.28;;;8.68;100.00
16690;BME280;8458;52.220;9.884;2023-11-21T05:35:28;100396.19;;;8.69;100.00
16690;BME280;8458;52.220;9.884;2023-11-21T05:37:54;100401.22;;;8.72;100.00
16690;BME280;8458;52.220;9.884;2023-11-21T05:40:21;100401.47;;;8.71;100.00
16690;BME280;8458;52.220;9.884;2023-11-21T05:42:48;100406.75;;;8.72;100.00
16690;BME280;8458;52.220;9.884;2023-11-21T05:45:17;100403.38;;;8.70;100.00
16690;BME280;8458;52.220;9.884;2023-11-21T05:47:45;100416.91;;;8.67;100.00
16690;BME280;8458;52.220;9.884;2023-11-21T05:50:14;100414.44;;;8.70;100.00
16690;BME280;8458;52.220;9.884;2023-11-21T05:52:41;100413.31;;;8.66;100.00
16690;BME280;8458;52.220;9.884;2023-11-21T05:55:08;100417.16;;;8.65;100.00
16690;BME280;8458;52.220;9.884;2023-11-21T05:57:35;100422.16;;;8.68;100.00
16690;BME280;8458;52.220;9.884;2023-11-21T06:00:04;100417.66;;;8.62;100.00
16690;BME280;8458;52.220;9.884;2023-11-21T06:02:37;100421.50;;;8.61;100.00
16690;BME280;8458;52.220;9.884;2023-11-21T06:05:04;100425.91;;;8.57;100.00
16690;BME280;8458;52.220;9.884;2023-11-21T06:07:32;100431.44;;;8.57;100.00
16690;BME280;8458;52.220;9.884;2023-11-21T06:09:58;100440.50;;;8.52;100.00
16690;BME280;8458;52.220;9.884;2023-11-21T06:12:25;100441.06;;;8.54;100.00
16690;BME280;8458;52.220;9.884;2023-11-21T06:14:51;100439.78;;;8.62;100.00
16690;BME280;8458;52.220;9.884;2023-11-21T06:17:18;100446.13;;;8.63;100.00
16690;BME280;8458;52.220;9.884;2023-11-21T06:19:45;100447.56;;;8.65;100.00
16690;BME280;8458;52.220;9.884;2023-11-21T06:22:11;100449.81;;;8.68;100.00
16690;BME280;8458;52.220;9.884;2023-11-21T06:24:39;100447.34;;;8.72;100.00
16690;BME280;8458;52.220;9.884;2023-11-21T06:27:07;100451.78;;;8.73;100.00
16690;BME280;8458;52.220;9.884;2023-11-21T06:29:34;100459.56;;;8.76;100.00
16690;BME280;8458;52.220;9.884;2023-11-21T06:32:00;100469.81;;;8.75;100.00
16690;BME280;8458;52.220;9.884;2023-11-21T06:34:30;100468.69;;;8.76;100.00
16690;BME280;8458;52.220;9.884;2023-11-21T06:36:56;100475.91;;;8.77;100.00
16690;BME280;8458;52.220;9.884;2023-11-21T06:39:23;100473.59;;;8.69;100.00
16690;BME280;8458;52.220;9.884;2023-11-21T06:41:51;100476.69;;;8.73;100.00
16690;BME280;8458;52.220;9.884;2023-11-21T06:44:17;100484.31;;;8.66;100.00
16690;BME280;8458;52.220;9.884;2023-11-21T06:46:44;100479.13;;;8.69;100.00
16690;BME280;8458;52.220;9.884;2023-11-21T06:49:11;100486.06;;;8.72;100.00
16690;BME280;8458;52.220;9.884;2023-11-21T06:51:37;100501.25;;;8.69;100.00
16690;BME280;8458;52.220;9.884;2023-11-21T06:54:05;100503.50;;;8.72;100.00
16690;BME280;8458;52.220;9.884;2023-11-21T06:56:32;100502.38;;;8.73;100.00
16690;BME280;8458;52.220;9.884;2023-11-21T06:59:00;100505.59;;;8.65;100.00
16690;BME280;8458;52.220;9.884;2023-11-21T07:01:26;100513.91;;;8.65;100.00
16690;BME280;8458;52.220;9.884;2023-11-21T07:03:53;100513.38;;;8.68;100.00
16690;BME280;8458;52.220;9.884;2023-11-21T07:06:19;100510.63;;;8.68;100.00
16690;BME280;8458;52.220;9.884;2023-11-21T07:08:45;100520.00;;;8.67;100.00
16690;BME280;8458;52.220;9.884;2023-11-21T07:11:12;100522.84;;;8.72;100.00
16690;BME280;8458;52.220;9.884;2023-11-21T07:13:38;100532.88;;;8.78;100.00
16690;BME280;8458;52.220;9.884;2023-11-21T07:16:07;100538.16;;;8.80;100.00
16690;BME280;8458;52.220;9.884;2023-11-21T07:18:35;100540.06;;;8.79;100.00
16690;BME280;8458;52.220;9.884;2023-11-21T07:21:02;100550.59;;;8.83;100.00
16690;BME280;8458;52.220;9.884;2023-11-21T07:23:29;100547.38;;;8.69;100.00
16690;BME280;8458;52.220;9.884;2023-11-21T07:25:55;100558.06;;;8.60;100.00
16690;BME280;8458;52.220;9.884;2023-11-21T07:28:24;100563.06;;;8.63;100.00
16690;BME280;8458;52.220;9.884;2023-11-21T07:30:51;100564.59;;;8.54;100.00
16690;BME280;8458;52.220;9.884;2023-11-21T07:33:19;100570.63;;;8.51;100.00
16690;BME280;8458;52.220;9.884;2023-11-21T07:35:46;100574.16;;;8.46;100.00
16690;BME280;8458;52.220;9.884;2023-11-21T07:38:13;100582.81;;;8.38;100.00
16690;BME280;8458;52.220;9.884;2023-11-21T07:40:39;100585.69;;;8.26;100.00
16690;BME280;8458;52.220;9.884;2023-11-21T07:43:06;100593.00;;;8.15;100.00
16690;BME280;8458;52.220;9.884;2023-11-21T07:45:32;100599.25;;;8.11;100.00
16690;BME280;8458;52.220;9.884;2023-11-21T07:47:59;100598.50;;;7.98;100.00
16690;BME280;8458;52.220;9.884;2023-11-21T07:50:27;100602.09;;;7.99;100.00
16690;BME280;8458;52.220;9.884;2023-11-21T07:52:53;100603.09;;;7.93;100.00
16690;BME280;8458;52.220;9.884;2023-11-21T07:55:20;100607.78;;;7.92;100.00
16690;BME280;8458;52.220;9.884;2023-11-21T07:57:47;100612.13;;;7.88;100.00
16690;BME280;8458;52.220;9.884;2023-11-21T08:00:14;100627.66;;;7.77;100.00
16690;BME280;8458;52.220;9.884;2023-11-21T08:02:40;100623.13;;;7.71;100.00
16690;BME280;8458;52.220;9.884;2023-11-21T08:05:08;100634.31;;;7.64;100.00
16690;BME280;8458;52.220;9.884;2023-11-21T08:07:37;100632.63;;;7.63;100.00
16690;BME280;8458;52.220;9.884;2023-11-21T08:10:05;100633.13;;;7.60;100.00
16690;BME280;8458;52.220;9.884;2023-11-21T08:12:31;100647.41;;;7.57;100.00
16690;BME280;8458;52.220;9.884;2023-11-21T08:14:58;100647.81;;;7.49;100.00
16690;BME280;8458;52.220;9.884;2023-11-21T08:17:25;100656.88;;;7.61;100.00
16690;BME280;8458;52.220;9.884;2023-11-21T08:19:52;100664.59;;;7.59;100.00
16690;BME280;8458;52.220;9.884;2023-11-21T08:22:18;100665.56;;;7.53;100.00
16690;BME280;8458;52.220;9.884;2023-11-21T08:24:46;100668.91;;;7.55;100.00
16690;BME280;8458;52.220;9.884;2023-11-21T08:27:12;100672.75;;;7.54;100.00
16690;BME280;8458;52.220;9.884;2023-11-21T08:29:41;100675.41;;;7.49;100.00
16690;BME280;8458;52.220;9.884;2023-11-21T08:32:08;100675.66;;;7.35;100.00
16690;BME280;8458;52.220;9.884;2023-11-21T08:34:34;100683.59;;;7.44;100.00
16690;BME280;8458;52.220;9.884;2023-11-21T08:37:01;100684.75;;;7.48;100.00
16690;BME280;8458;52.220;9.884;2023-11-21T08:39:27;100692.78;;;7.49;100.00
16690;BME280;8458;52.220;9.884;2023-11-21T08:41:57;100687.97;;;7.57;100.00
16690;BME280;8458;52.220;9.884;2023-11-21T08:44:23;100696.41;;;7.50;100.00
16690;BME280;8458;52.220;9.884;2023-11-21T08:46:50;100695.53;;;7.61;100.00
16690;BME280;8458;52.220;9.884;2023-11-21T08:49:16;100692.28;;;7.64;100.00
16690;BME280;8458;52.220;9.884;2023-11-21T08:51:44;100698.19;;;7.56;100.00
16690;BME280;8458;52.220;9.884;2023-11-21T08:54:10;100704.53;;;7.57;100.00
16690;BME280;8458;52.220;9.884;2023-11-21T08:56:37;100703.91;;;7.66;100.00
16690;BME280;8458;52.220;9.884;2023-11-21T08:59:05;100708.09;;;7.69;100.00
16690;BME280;8458;52.220;9.884;2023-11-21T09:01:33;100712.78;;;7.68;100.00
16690;BME280;8458;52.220;9.884;2023-11-21T09:03:59;100718.31;;;7.68;100.00
16690;BME280;8458;52.220;9.884;2023-11-21T09:06:26;100716.72;;;7.72;100.00
16690;BME280;8458;52.220;9.884;2023-11-21T09:08:52;100720.69;;;7.77;100.00
16690;BME280;8458;52.220;9.884;2023-11-21T09:11:19;100731.72;;;7.77;100.00
16690;BME280;8458;52.220;9.884;2023-11-21T09:13:45;100728.25;;;7.69;100.00
16690;BME280;8458;52.220;9.884;2023-11-21T09:16:13;100727.66;;;7.67;100.00
16690;BME280;8458;52.220;9.884;2023-11-21T09:18:40;100741.22;;;7.69;100.00
16690;BME280;8458;52.220;9.884;2023-11-21T09:21:07;100750.56;;;7.68;100.00
16690;BME280;8458;52.220;9.884;2023-11-21T09:23:33;100745.78;;;7.63;100.00
16690;BME280;8458;52.220;9.884;2023-11-21T09:26:00;100755.75;;;7.64;100.00
16690;BME280;8458;52.220;9.884;2023-11-21T09:28:26;100756.00;;;7.51;100.00
16690;BME280;8458;52.220;9.884;2023-11-21T09:30:53;100762.16;;;7.53;100.00
16690;BME280;8458;52.220;9.884;2023-11-21T09:33:21;100767.66;;;7.53;100.00
16690;BME280;8458;52.220;9.884;2023-11-21T09:35:50;100774.84;;;7.54;100.00
16690;BME280;8458;52.220;9.884;2023-11-21T09:38:17;100779.78;;;7.52;100.00
16690;BME280;8458;52.220;9.884;2023-11-21T09:40:43;100792.50;;;7.53;100.00
16690;BME280;8458;52.220;9.884;2023-11-21T09:43:16;100793.31;;;7.53;100.00
16690;BME280;8458;52.220;9.884;2023-11-21T09:45:45;100804.59;;;7.52;100.00
16690;BME280;8458;52.220;9.884;2023-11-21T09:48:12;100803.53;;;7.53;100.00
16690;BME280;8458;52.220;9.884;2023-11-21T09:50:41;100804.72;;;7.57;100.00
16690;BME280;8458;52.220;9.884;2023-11-21T09:53:13;100807.59;;;7.62;100.00
16690;BME280;8458;52.220;9.884;2023-11-21T09:55:42;100816.47;;;7.64;100.00
16690;BME280;8458;52.220;9.884;2023-11-21T09:58:09;100815.06;;;7.50;100.00
16690;BME280;8458;52.220;9.884;2023-11-21T10:00:39;100818.88;;;7.49;100.00
16690;BME280;8458;52.220;9.884;2023-11-21T10:03:06;100825.47;;;7.48;100.00
16690;BME280;8458;52.220;9.884;2023-11-21T10:05:33;100822.59;;;7.43;100.00
16690;BME280;8458;52.220;9.884;2023-11-21T10:08:02;100823.19;;;7.45;100.00
16690;BME280;8458;52.220;9.884;2023-11-21T10:10:32;100822.13;;;7.46;100.00
16690;BME280;8458;52.220;9.884;2023-11-21T10:13:02;100824.75;;;7.52;100.00
16690;BME280;8458;52.220;9.884;2023-11-21T10:15:32;100834.47;;;7.55;100.00
16690;BME280;8458;52.220;9.884;2023-11-21T10:18:00;100833.28;;;7.51;100.00
16690;BME280;8458;52.220;9.884;2023-11-21T10:20:28;100835.91;;;7.46;100.00
16690;BME280;8458;52.220;9.884;2023-11-21T10:22:55;100842.41;;;7.40;100.00
16690;BME280;8458;52.220;9.884;2023-11-21T10:25:24;100837.22;;;7.43;100.00
16690;BME280;8458;52.220;9.884;2023-11-21T10:27:57;100846.13;;;7.45;100.00
16690;BME280;8458;52.220;9.884;2023-11-21T10:30:28;100838.69;;;7.46;100.00
16690;BME280;8458;52.220;9.884;2023-11-21T10:32:58;100852.38;;;7.41;100.00
16690;BME280;8458;52.220;9.884;2023-11-21T10:35:38;100852.47;;;7.46;100.00
16690;BME280;8458;52.220;9.884;2023-11-21T10:38:05;100859.78;;;7.52;100.00
16690;BME280;8458;52.220;9.884;2023-11-21T10:40:37;100863.16;;;7.42;100.00
16690;BME280;8458;52.220;9.884;2023-11-21T10:43:06;100874.28;;;7.35;100.00
16690;BME280;8458;52.220;9.884;2023-11-21T10:45:34;100876.47;;;7.33;100.00
16690;BME280;8458;52.220;9.884;2023-11-21T10:48:05;100873.56;;;7.40;100.00
16690;BME280;8458;52.220;9.884;2023-11-21T10:50:32;100874.56;;;7.46;100.00
16690;BME280;8458;52.220;9.884;2023-11-21T10:53:01;100883.31;;;7.43;100.00
16690;BME280;8458;52.220;9.884;2023-11-21T10:55:27;100876.72;;;7.44;100.00
16690;BME280;8458;52.220;9.884;2023-11-21T10:57:58;100879.47;;;7.44;100.00
16690;BME280;8458;52.220;9.884;2023-11-21T11:00:26;100886.81;;;7.50;100.00
16690;BME280;8458;52.220;9.884;2023-11-21T11:02:53;100891.34;;;7.56;100.00
16690;BME280;8458;52.220;9.884;2023-11-21T11:05:22;100896.72;;;7.51;100.00
16690;BME280;8458;52.220;9.884;2023-11-21T11:07:50;100901.06;;;7.47;100.00
16690;BME280;8458;52.220;9.884;2023-11-21T11:10:19;100902.38;;;7.44;100.00
16690;BME280;8458;52.220;9.884;2023-11-21T11:12:48;100903.69;;;7.42;100.00
16690;BME280;8458;52.220;9.884;2023-11-21T11:15:16;100911.25;;;7.34;99.05
16690;BME280;8458;52.220;9.884;2023-11-21T11:17:43;100910.16;;;7.35;99.12
16690;BME280;8458;52.220;9.884;2023-11-21T11:20:12;100916.16;;;7.32;98.91
16690;BME280;8458;52.220;9.884;2023-11-21T11:22:46;100913.53;;;7.38;98.69
16690;BME280;8458;52.220;9.884;2023-11-21T11:25:25;100911.59;;;7.26;98.48
16690;BME280;8458;52.220;9.884;2023-11-21T11:28:02;100917.25;;;7.31;98.93
16690;BME280;8458;52.220;9.884;2023-11-21T11:30:41;100916.06;;;7.39;99.33
16690;BME280;8458;52.220;9.884;2023-11-21T11:33:17;100916.53;;;7.48;99.71
16690;BME280;8458;52.220;9.884;2023-11-21T11:35:56;100921.09;;;7.54;99.10
16690;BME280;8458;52.220;9.884;2023-11-21T11:38:23;100920.50;;;7.52;98.89
16690;BME280;8458;52.220;9.884;2023-11-21T11:40:53;100921.00;;;7.61;99.03
16690;BME280;8458;52.220;9.884;2023-11-21T11:43:25;100918.72;;;7.58;98.43
16690;BME280;8458;52.220;9.884;2023-11-21T11:45:55;100923.75;;;7.61;98.30
16690;BME280;8458;52.220;9.884;2023-11-21T11:48:22;100935.75;;;7.66;98.35
16690;BME280;8458;52.220;9.884;2023-11-21T11:51:09;100924.13;;;7.64;97.23
16690;BME280;8458;52.220;9.884;2023-11-21T11:53:40;100937.53;;;7.72;97.69
16690;BME280;8458;52.220;9.884;2023-11-21T11:56:24;100933.00;;;7.78;97.76
16690;BME280;8458;52.220;9.884;2023-11-21T11:58:53;100946.56;;;7.80;97.83
16690;BME280;8458;52.220;9.884;2023-11-21T12:01:24;100943.91;;;7.85;97.77
16690;BME280;8458;52.220;9.884;2023-11-21T12:04:25;100946.81;;;7.90;97.40
16690;BME280;8458;52.220;9.884;2023-11-21T12:07:00;100951.50;;;7.78;94.47
16690;BME280;8458;52.220;9.884;2023-11-21T12:09:29;100944.03;;;7.78;94.07
16690;BME280;8458;52.220;9.884;2023-11-21T12:11:57;100948.97;;;7.76;93.83
16690;BME280;8458;52.220;9.884;2023-11-21T12:14:23;100952.31;;;7.78;94.43
16690;BME280;8458;52.220;9.884;2023-11-21T12:16:52;100957.94;;;7.83;95.04
16690;BME280;8458;52.220;9.884;2023-11-21T12:19:19;100960.38;;;7.80;95.17
16690;BME280;8458;52.220;9.884;2023-11-21T12:21:47;100963.47;;;7.83;95.94
16690;BME280;8458;52.220;9.884;2023-11-21T12:24:14;100971.16;;;7.81;95.24
16690;BME280;8458;52.220;9.884;2023-11-21T12:26:42;100969.63;;;7.85;96.08
16690;BME280;8458;52.220;9.884;2023-11-21T12:29:09;100969.84;;;7.84;96.21
16690;BME280;8458;52.220;9.884;2023-11-21T12:31:36;100974.28;;;7.85;94.54
16690;BME280;8458;52.220;9.884;2023-11-21T12:34:04;100977.78;;;7.92;94.41
16690;BME280;8458;52.220;9.884;2023-11-21T12:36:32;100976.56;;;7.88;94.54
16690;BME280;8458;52.220;9.884;2023-11-21T12:39:00;100968.91;;;7.90;93.69
16690;BME280;8458;52.220;9.884;2023-11-21T12:41:27;100974.91;;;7.87;92.85
16690;BME280;8458;52.220;9.884;2023-11-21T12:43:55;100984.25;;;7.86;93.08
16690;BME280;8458;52.220;9.884;2023-11-21T12:46:21;100987.00;;;7.86;92.98
16690;BME280;8458;52.220;9.884;2023-11-21T12:48:48;100995.66;;;7.78;93.16
16690;BME280;8458;52.220;9.884;2023-11-21T12:51:16;100997.56;;;7.77;94.19
16690;BME280;8458;52.220;9.884;2023-11-21T12:53:44;101001.78;;;7.80;94.75
16690;BME280;8458;52.220;9.884;2023-11-21T12:56:12;101005.59;;;7.79;94.60
16690;BME280;8458;52.220;9.884;2023-11-21T12:58:44;101011.13;;;7.79;94.23
16690;BME280;8458;52.220;9.884;2023-11-21T13:01:13;101007.66;;;7.83;93.64
16690;BME280;8458;52.220;9.884;2023-11-21T13:03:46;101013.06;;;7.90;93.85
16690;BME280;8458;52.220;9.884;2023-11-21T13:06:15;101020.13;;;7.98;94.54